createdAt,value
2023-10-08T00:01:34.396Z,101094.88
2023-10-08T00:04:05.214Z,101110.09
2023-10-08T00:06:31.999Z,101118.53
2023-10-08T00:09:01.845Z,101125.91
2023-10-08T00:11:30.356Z,101106.72
2023-10-08T00:13:57.777Z,101101.44
2023-10-08T00:16:24.900Z,101110.50
2023-10-08T00:18:52.744Z,101105.84
2023-10-08T00:21:27.166Z,101103.31
2023-10-08T00:24:07.242Z,101115.78
2023-10-08T00:26:36.318Z,101103.59
2023-10-08T00:29:07.796Z,101117.88
2023-10-08T00:31:41.824Z,101101.03
2023-10-08T00:34:13.169Z,101123.16
2023-10-08T00:36:44.362Z,101121.50
2023-10-08T00:39:15.304Z,101121.94
2023-10-08T00:41:44.358Z,101130.59
2023-10-08T00:44:17.595Z,101124.72
2023-10-08T00:46:50.489Z,101128.88
2023-10-08T00:49:36.425Z,101134.66
2023-10-08T00:52:09.455Z,101148.34
2023-10-08T00:54:47.729Z,101145.34
2023-10-08T00:57:21.168Z,101138.41
2023-10-08T00:59:54.726Z,101147.69
2023-10-08T01:02:26.501Z,101151.47
2023-10-08T01:04:55.394Z,101144.94
2023-10-08T01:07:22.989Z,101142.59
2023-10-08T01:09:53.110Z,101132.91
2023-10-08T01:12:25.041Z,101134.63
2023-10-08T01:14:54.842Z,101139.25
2023-10-08T01:17:25.749Z,101146.00
2023-10-08T01:20:10.157Z,101150.66
2023-10-08T01:22:39.971Z,101170.69
2023-10-08T01:25:07.199Z,101162.47
2023-10-08T01:27:36.497Z,101155.06
2023-10-08T01:30:19.017Z,101155.53
2023-10-08T01:32:46.501Z,101169.84
2023-10-08T01:35:27.227Z,101173.88
2023-10-08T01:37:57.250Z,101176.84
2023-10-08T01:40:24.203Z,101171.75
2023-10-08T01:42:54.204Z,101168.63
2023-10-08T01:45:21.222Z,101187.16
2023-10-08T01:47:52.989Z,101175.13
2023-10-08T01:50:23.224Z,101178.75
2023-10-08T01:52:50.120Z,101200.69
2023-10-08T01:55:20.793Z,101201.13
2023-10-08T01:57:50.181Z,101214.00
2023-10-08T02:00:23.865Z,101206.63
2023-10-08T02:02:51.927Z,101217.16
2023-10-08T02:05:20.718Z,101199.44
2023-10-08T02:07:47.852Z,101196.91
2023-10-08T02:10:17.700Z,101219.69
2023-10-08T02:12:44.381Z,101212.94
2023-10-08T02:15:14.416Z,101214.59
2023-10-08T02:17:41.234Z,101211.88
2023-10-08T02:20:09.395Z,101225.16
2023-10-08T02:22:36.858Z,101246.47
2023-10-08T02:25:04.742Z,101244.56
2023-10-08T02:27:34.217Z,101249.22
2023-10-08T02:30:04.401Z,101261.47
2023-10-08T02:32:31.180Z,101249.44
2023-10-08T02:34:58.599Z,101294.38
2023-10-08T02:37:25.502Z,101279.59
2023-10-08T02:39:52.617Z,101267.16
2023-10-08T02:42:19.873Z,101268.22
2023-10-08T02:44:47.082Z,101279.38
2023-10-08T02:47:15.288Z,101268.22
2023-10-08T02:49:42.853Z,101266.72
2023-10-08T02:52:10.027Z,101259.78
2023-10-08T02:54:40.145Z,101284.66
2023-10-08T02:57:11.852Z,101268.00
2023-10-08T02:59:45.036Z,101271.38
2023-10-08T03:02:22.714Z,101271.78
2023-10-08T03:04:56.653Z,101278.75
2023-10-08T03:07:24.219Z,101267.34
2023-10-08T03:09:52.490Z,101251.53
2023-10-08T03:12:19.694Z,101270.94
2023-10-08T03:15:09.941Z,101280.03
2023-10-08T03:17:39.006Z,101278.53
2023-10-08T03:20:26.629Z,101285.50
2023-10-08T03:22:53.657Z,101295.63
2023-10-08T03:25:20.804Z,101287.38
2023-10-08T03:27:49.605Z,101282.34
2023-10-08T03:30:16.991Z,101290.56
2023-10-08T03:32:45.924Z,101300.69
2023-10-08T03:35:13.707Z,101311.44
2023-10-08T03:37:47.583Z,101294.09
2023-10-08T03:40:26.491Z,101318.16
2023-10-08T03:42:56.973Z,101326.19
2023-10-08T03:45:43.082Z,101336.28
2023-10-08T03:48:16.334Z,101339.00
2023-10-08T03:50:44.583Z,101349.53
2023-10-08T03:53:14.323Z,101352.09
2023-10-08T03:55:45.084Z,101357.19
2023-10-08T03:58:20.624Z,101364.72
2023-10-08T04:00:47.943Z,101364.06
2023-10-08T04:03:24.662Z,101386.47
2023-10-08T04:06:15.594Z,101389.16
2023-10-08T04:08:47.268Z,101374.34
2023-10-08T04:11:31.219Z,101385.69
2023-10-08T04:14:01.312Z,101373.63
2023-10-08T04:16:29.052Z,101373.19
2023-10-08T04:19:04.275Z,101394.91
2023-10-08T04:21:34.758Z,101391.28
2023-10-08T04:24:05.769Z,101420.19
2023-10-08T04:26:33.622Z,101417.06
2023-10-08T04:29:07.687Z,101397.41
2023-10-08T04:31:44.711Z,101425.00
2023-10-08T04:34:16.701Z,101433.03
2023-10-08T04:36:46.668Z,101448.03
2023-10-08T04:39:22.658Z,101449.47
2023-10-08T04:41:50.525Z,101444.59
2023-10-08T04:44:17.745Z,101432.31
2023-10-08T04:46:48.878Z,101428.00
2023-10-08T04:49:31.292Z,101437.00
2023-10-08T04:51:58.160Z,101440.59
2023-10-08T04:54:32.049Z,101435.66
2023-10-08T04:57:03.751Z,101422.34
2023-10-08T04:59:34.982Z,101441.50
2023-10-08T05:02:13.923Z,101442.53
2023-10-08T05:04:53.145Z,101463.72
2023-10-08T05:07:43.435Z,101474.03
2023-10-08T05:10:10.243Z,101467.44
2023-10-08T05:12:51.832Z,101487.66
2023-10-08T05:15:18.766Z,101474.34
2023-10-08T05:17:53.094Z,101485.47
2023-10-08T05:20:47.676Z,101468.94
2023-10-08T05:23:21.262Z,101497.78
2023-10-08T05:26:00.825Z,101512.38
2023-10-08T05:28:28.968Z,101515.13
2023-10-08T05:31:14.574Z,101520.59
2023-10-08T05:34:01.132Z,101515.91
2023-10-08T05:36:51.183Z,101521.81
2023-10-08T05:39:33.427Z,101524.38
2023-10-08T05:42:21.586Z,101534.00
2023-10-08T05:45:15.632Z,101542.22
2023-10-08T05:48:02.721Z,101540.53
2023-10-08T05:50:40.321Z,101553.88
2023-10-08T05:53:20.761Z,101545.56
2023-10-08T05:56:02.302Z,101546.28
2023-10-08T05:58:46.663Z,101543.63
2023-10-08T06:01:30.839Z,101573.50
2023-10-08T06:04:22.058Z,101574.09
2023-10-08T06:07:09.382Z,101575.72
2023-10-08T06:09:38.743Z,101582.16
2023-10-08T06:12:13.805Z,101599.41
2023-10-08T06:14:54.022Z,101604.28
2023-10-08T06:17:40.127Z,101619.56
2023-10-08T06:20:17.929Z,101632.06
2023-10-08T06:22:45.113Z,101641.59
2023-10-08T06:25:24.142Z,101648.13
2023-10-08T06:27:58.746Z,101643.88
2023-10-08T06:30:30.261Z,101621.72
2023-10-08T06:32:57.744Z,101629.13
2023-10-08T06:35:27.276Z,101628.91
2023-10-08T06:38:00.742Z,101655.84
2023-10-08T06:40:39.917Z,101655.88
2023-10-08T06:43:17.772Z,101659.69
2023-10-08T06:45:46.907Z,101665.38
2023-10-08T06:48:21.982Z,101653.00
2023-10-08T06:50:50.382Z,101681.03
2023-10-08T06:53:19.374Z,101691.00
2023-10-08T06:55:49.144Z,101693.78
2023-10-08T06:58:16.420Z,101693.75
2023-10-08T07:00:50.146Z,101697.72
2023-10-08T07:03:18.887Z,101702.09
2023-10-08T07:06:03.387Z,101691.09
2023-10-08T07:08:33.649Z,101689.88
2023-10-08T07:11:02.661Z,101694.09
2023-10-08T07:13:30.678Z,101698.16
2023-10-08T07:15:57.898Z,101701.69
2023-10-08T07:18:28.559Z,101719.13
2023-10-08T07:20:56.942Z,101713.09
2023-10-08T07:23:35.484Z,101719.59
2023-10-08T07:26:12.942Z,101718.94
2023-10-08T07:28:43.285Z,101729.13
2023-10-08T07:31:18.915Z,101739.03
2023-10-08T07:33:57.606Z,101728.09
2023-10-08T07:36:25.043Z,101733.16
2023-10-08T07:38:52.776Z,101734.53
2023-10-08T07:41:21.401Z,101727.22
2023-10-08T07:43:59.634Z,101742.28
2023-10-08T07:46:27.543Z,101758.53
2023-10-08T07:49:00.768Z,101741.38
2023-10-08T07:51:28.745Z,101760.50
2023-10-08T07:53:57.402Z,101763.91
2023-10-08T07:56:25.133Z,101757.63
2023-10-08T07:58:53.620Z,101763.50
2023-10-08T08:01:22.169Z,101749.13
2023-10-08T08:03:50.298Z,101768.84
2023-10-08T08:06:17.180Z,101763.13
2023-10-08T08:08:45.486Z,101776.03
2023-10-08T08:11:18.552Z,101773.78
2023-10-08T08:13:46.429Z,101779.28
2023-10-08T08:16:18.018Z,101776.72
2023-10-08T08:18:53.232Z,101778.06
2023-10-08T08:21:20.686Z,101789.31
2023-10-08T08:23:51.442Z,101790.31
2023-10-08T08:26:31.021Z,101793.50
2023-10-08T08:29:01.065Z,101795.38
2023-10-08T08:31:36.548Z,101796.75
2023-10-08T08:34:09.396Z,101805.19
2023-10-08T08:36:40.244Z,101799.56
2023-10-08T08:39:09.768Z,101800.59
2023-10-08T08:41:39.476Z,101811.34
2023-10-08T08:44:08.129Z,101813.00
2023-10-08T08:46:36.865Z,101817.34
2023-10-08T08:49:05.909Z,101825.97
2023-10-08T08:51:33.148Z,101826.50
2023-10-08T08:54:01.803Z,101832.47
2023-10-08T08:56:30.370Z,101825.09
2023-10-08T08:59:00.138Z,101836.31
2023-10-08T09:01:27.110Z,101805.44
2023-10-08T09:04:06.130Z,101838.28
2023-10-08T09:06:35.224Z,101830.00
2023-10-08T09:09:21.705Z,101828.97
2023-10-08T09:11:56.128Z,101838.28
2023-10-08T09:14:26.559Z,101840.69
2023-10-08T09:16:55.261Z,101846.44
2023-10-08T09:19:25.986Z,101837.75
2023-10-08T09:22:06.301Z,101851.31
2023-10-08T09:24:37.632Z,101856.00
2023-10-08T09:27:08.918Z,101855.22
2023-10-08T09:29:41.990Z,101850.78
2023-10-08T09:32:14.510Z,101856.50
2023-10-08T09:34:41.805Z,101845.50
2023-10-08T09:37:09.027Z,101843.81
2023-10-08T09:39:38.297Z,101842.59
2023-10-08T09:42:08.394Z,101848.56
2023-10-08T09:44:35.850Z,101844.75
2023-10-08T09:47:07.950Z,101855.97
2023-10-08T09:49:45.421Z,101855.53
2023-10-08T09:52:13.971Z,101864.00
2023-10-08T09:54:45.158Z,101871.22
2023-10-08T09:57:12.551Z,101872.09
2023-10-08T09:59:42.170Z,101879.94
2023-10-08T10:02:11.627Z,101875.09
2023-10-08T10:04:45.559Z,101874.91
2023-10-08T10:07:14.232Z,101876.38
2023-10-08T10:09:46.051Z,101879.56
2023-10-08T10:12:13.634Z,101885.06
2023-10-08T10:14:45.945Z,101882.09
2023-10-08T10:17:42.293Z,101879.75
2023-10-08T10:20:15.173Z,101882.75
2023-10-08T10:22:44.831Z,101877.50
2023-10-08T10:25:21.602Z,101869.88
2023-10-08T10:27:52.235Z,101882.19
2023-10-08T10:30:22.798Z,101885.78
2023-10-08T10:33:01.341Z,101889.84
2023-10-08T10:35:29.490Z,101883.69
2023-10-08T10:38:04.350Z,101876.88
2023-10-08T10:40:40.705Z,101897.88
2023-10-08T10:43:10.667Z,101894.91
2023-10-08T10:45:38.285Z,101903.41
2023-10-08T10:48:20.840Z,101891.75
2023-10-08T10:51:09.659Z,101897.72
2023-10-08T10:53:57.232Z,101893.66
2023-10-08T10:56:40.703Z,101903.84
2023-10-08T10:59:20.293Z,101903.00
2023-10-08T11:01:56.363Z,101880.94
2023-10-08T11:04:30.376Z,101896.84
2023-10-08T11:06:59.749Z,101906.78
2023-10-08T11:09:45.559Z,101891.13
2023-10-08T11:12:19.918Z,101893.66
2023-10-08T11:14:53.139Z,101894.72
2023-10-08T11:17:29.533Z,101884.75
2023-10-08T11:19:56.393Z,101890.06
2023-10-08T11:22:24.181Z,101886.50
2023-10-08T11:24:55.209Z,101887.75
2023-10-08T11:27:36.754Z,101888.81
2023-10-08T11:30:12.247Z,101893.25
2023-10-08T11:32:40.190Z,101897.72
2023-10-08T11:35:17.748Z,101899.41
2023-10-08T11:37:52.562Z,101887.31
2023-10-08T11:40:30.184Z,101897.91
2023-10-08T11:43:00.325Z,101885.66
2023-10-08T11:45:28.290Z,101877.41
2023-10-08T11:47:58.590Z,101886.94
2023-10-08T11:50:32.171Z,101881.00
2023-10-08T11:53:04.303Z,101878.44
2023-10-08T11:55:36.408Z,101889.25
2023-10-08T11:58:11.589Z,101888.59
2023-10-08T12:00:46.992Z,101883.53
2023-10-08T12:03:20.347Z,101883.03
2023-10-08T12:05:50.085Z,101865.63
2023-10-08T12:08:22.162Z,101882.00
2023-10-08T12:10:50.311Z,101888.06
2023-10-08T12:13:19.362Z,101892.56
2023-10-08T12:15:46.610Z,101899.81
2023-10-08T12:18:17.040Z,101900.25
2023-10-08T12:20:45.193Z,101898.81
2023-10-08T12:23:12.704Z,101896.25
2023-10-08T12:25:39.504Z,101885.66
2023-10-08T12:28:07.941Z,101868.00
2023-10-08T12:30:42.649Z,101865.00
2023-10-08T12:33:17.146Z,101861.59
2023-10-08T12:35:45.625Z,101866.75
2023-10-08T12:38:14.165Z,101871.91
2023-10-08T12:40:53.898Z,101871.75
2023-10-08T12:43:22.035Z,101855.88
2023-10-08T12:45:55.992Z,101856.31
2023-10-08T12:48:28.660Z,101860.28
2023-10-08T12:50:59.452Z,101856.81
2023-10-08T12:53:38.151Z,101861.72
2023-10-08T12:56:15.912Z,101858.69
2023-10-08T12:58:49.526Z,101856.78
2023-10-08T13:01:18.856Z,101854.25
2023-10-08T13:03:50.059Z,101867.97
2023-10-08T13:06:45.424Z,101853.59
2023-10-08T13:09:15.408Z,101847.28
2023-10-08T13:11:44.075Z,101841.44
2023-10-08T13:14:12.814Z,101845.28
2023-10-08T13:16:41.304Z,101850.63
2023-10-08T13:19:10.125Z,101862.31
2023-10-08T13:21:38.251Z,101851.75
2023-10-08T13:24:09.921Z,101864.06
2023-10-08T13:26:39.840Z,101860.00
2023-10-08T13:29:07.461Z,101860.84
2023-10-08T13:31:37.831Z,101865.72
2023-10-08T13:34:09.781Z,101854.69
2023-10-08T13:36:38.946Z,101861.72
2023-10-08T13:39:11.290Z,101854.28
2023-10-08T13:41:40.279Z,101832.47
2023-10-08T13:44:07.855Z,101847.28
2023-10-08T13:46:37.904Z,101851.34
2023-10-08T13:49:07.279Z,101854.75
2023-10-08T13:51:36.288Z,101851.56
2023-10-08T13:54:07.860Z,101865.31
2023-10-08T13:56:36.053Z,101864.91
2023-10-08T13:59:15.080Z,101851.75
2023-10-08T14:01:53.429Z,101861.09
2023-10-08T14:04:21.512Z,101871.69
2023-10-08T14:06:49.277Z,101865.09
2023-10-08T14:09:22.583Z,101859.56
2023-10-08T14:11:51.638Z,101858.34
2023-10-08T14:14:20.841Z,101850.69
2023-10-08T14:16:53.254Z,101847.09
2023-10-08T14:19:30.038Z,101843.28
2023-10-08T14:22:01.522Z,101848.19
2023-10-08T14:24:32.532Z,101849.44
2023-10-08T14:27:10.791Z,101862.16
2023-10-08T14:29:41.947Z,101854.72
2023-10-08T14:32:11.680Z,101851.31
2023-10-08T14:34:47.839Z,101860.44
2023-10-08T14:37:33.390Z,101865.06
2023-10-08T14:40:19.027Z,101857.25
2023-10-08T14:43:00.131Z,101857.25
2023-10-08T14:45:36.286Z,101853.44
2023-10-08T14:48:06.854Z,101849.19
2023-10-08T14:50:34.673Z,101857.03
2023-10-08T14:53:03.073Z,101847.72
2023-10-08T14:55:31.319Z,101849.19
2023-10-08T14:57:58.403Z,101849.63
2023-10-08T15:00:28.219Z,101858.13
2023-10-08T15:02:55.791Z,101857.25
2023-10-08T15:05:23.818Z,101858.53
2023-10-08T15:07:54.089Z,101866.78
2023-10-08T15:10:24.849Z,101865.94
2023-10-08T15:12:53.387Z,101864.88
2023-10-08T15:15:26.538Z,101857.66
2023-10-08T15:17:53.779Z,101868.03
2023-10-08T15:20:23.182Z,101871.44
2023-10-08T15:22:50.666Z,101870.84
2023-10-08T15:25:19.247Z,101878.69
2023-10-08T15:27:47.773Z,101873.19
2023-10-08T15:30:16.980Z,101858.53
2023-10-08T15:32:45.266Z,101874.41
2023-10-08T15:35:15.554Z,101862.78
2023-10-08T15:37:43.128Z,101877.59
2023-10-08T15:40:18.423Z,101876.53
2023-10-08T15:42:52.895Z,101880.56
2023-10-08T15:45:21.275Z,101882.44
2023-10-08T15:47:50.226Z,101887.09
2023-10-08T15:50:21.408Z,101888.41
2023-10-08T15:52:49.551Z,101883.28
2023-10-08T15:55:16.743Z,101893.03
2023-10-08T15:57:43.573Z,101886.88
2023-10-08T16:00:11.161Z,101881.81
2023-10-08T16:02:38.194Z,101895.78
2023-10-08T16:05:08.984Z,101898.94
2023-10-08T16:07:36.269Z,101900.22
2023-10-08T16:10:03.662Z,101908.25
2023-10-08T16:12:30.669Z,101907.00
2023-10-08T16:14:57.851Z,101904.88
2023-10-08T16:17:25.127Z,101907.19
2023-10-08T16:19:54.960Z,101899.53
2023-10-08T16:22:21.656Z,101901.03
2023-10-08T16:24:49.818Z,101903.13
2023-10-08T16:27:16.856Z,101898.47
2023-10-08T16:29:45.023Z,101882.75
2023-10-08T16:32:13.132Z,101891.47
2023-10-08T16:34:40.263Z,101896.94
2023-10-08T16:37:07.300Z,101901.38
2023-10-08T16:39:34.524Z,101897.34
2023-10-08T16:42:01.278Z,101894.59
2023-10-08T16:44:28.499Z,101885.94
2023-10-08T16:46:55.253Z,101892.69
2023-10-08T16:49:22.618Z,101899.25
2023-10-08T16:51:49.477Z,101897.53
2023-10-08T16:54:17.354Z,101894.38
2023-10-08T16:56:45.253Z,101901.34
2023-10-08T16:59:15.341Z,101891.56
2023-10-08T17:01:45.839Z,101896.00
2023-10-08T17:04:14.056Z,101896.38
2023-10-08T17:06:41.348Z,101879.41
2023-10-08T17:09:18.099Z,101888.28
2023-10-08T17:11:47.234Z,101884.66
2023-10-08T17:14:15.484Z,101890.81
2023-10-08T17:16:43.187Z,101894.41
2023-10-08T17:19:10.388Z,101892.91
2023-10-08T17:21:37.420Z,101901.16
2023-10-08T17:24:07.697Z,101889.13
2023-10-08T17:26:35.607Z,101887.22
2023-10-08T17:29:03.406Z,101886.38
2023-10-08T17:31:34.986Z,101880.00
2023-10-08T17:34:03.214Z,101876.63
2023-10-08T17:36:33.708Z,101870.06
2023-10-08T17:39:10.399Z,101861.97
2023-10-08T17:41:37.806Z,101865.22
2023-10-08T17:44:07.115Z,101863.72
2023-10-08T17:46:34.458Z,101855.09
2023-10-08T17:49:01.755Z,101857.38
2023-10-08T17:51:29.036Z,101855.09
2023-10-08T17:53:56.307Z,101862.91
2023-10-08T17:56:23.430Z,101856.13
2023-10-08T17:58:50.476Z,101834.53
2023-10-08T18:01:17.794Z,101853.16
2023-10-08T18:03:46.184Z,101853.75
2023-10-08T18:06:15.741Z,101847.16
2023-10-08T18:08:43.931Z,101847.34
2023-10-08T18:11:11.326Z,101850.91
2023-10-08T18:13:42.023Z,101848.50
2023-10-08T18:16:11.994Z,101849.75
2023-10-08T18:18:42.414Z,101839.16
2023-10-08T18:21:17.765Z,101843.81
2023-10-08T18:23:47.964Z,101828.94
2023-10-08T18:26:16.735Z,101828.13
2023-10-08T18:28:47.071Z,101825.19
2023-10-08T18:31:14.516Z,101823.09
2023-10-08T18:33:44.437Z,101821.84
2023-10-08T18:36:13.654Z,101824.59
2023-10-08T18:38:42.532Z,101825.41
2023-10-08T18:41:12.475Z,101830.91
2023-10-08T18:43:39.874Z,101837.47
2023-10-08T18:46:10.892Z,101839.31
2023-10-08T18:48:42.064Z,101816.22
2023-10-08T18:51:14.224Z,101835.22
2023-10-08T18:53:46.380Z,101832.22
2023-10-08T18:56:15.493Z,101829.91
2023-10-08T18:58:43.428Z,101820.34
2023-10-08T19:01:13.288Z,101824.78
2023-10-08T19:03:44.721Z,101822.28
2023-10-08T19:06:12.196Z,101825.03
2023-10-08T19:08:39.764Z,101827.34
2023-10-08T19:11:10.325Z,101823.97
2023-10-08T19:13:38.378Z,101818.94
2023-10-08T19:16:08.398Z,101806.25
2023-10-08T19:18:37.325Z,101793.56
2023-10-08T19:21:10.669Z,101789.13
2023-10-08T19:23:37.779Z,101787.00
2023-10-08T19:26:05.379Z,101787.00
2023-10-08T19:28:33.357Z,101796.28
2023-10-08T19:31:03.590Z,101793.97
2023-10-08T19:33:31.014Z,101795.41
2023-10-08T19:35:58.965Z,101781.63
2023-10-08T19:38:26.267Z,101786.91
2023-10-08T19:40:54.201Z,101784.97
2023-10-08T19:43:20.912Z,101784.38
2023-10-08T19:45:48.929Z,101795.13
2023-10-08T19:48:16.213Z,101790.91
2023-10-08T19:50:43.981Z,101787.69
2023-10-08T19:53:11.922Z,101782.38
2023-10-08T19:55:46.773Z,101785.13
2023-10-08T19:58:16.044Z,101774.78
2023-10-08T20:00:44.971Z,101776.66
2023-10-08T20:03:12.356Z,101770.31
2023-10-08T20:05:41.148Z,101763.13
2023-10-08T20:08:07.994Z,101757.44
2023-10-08T20:10:38.133Z,101759.38
2023-10-08T20:13:05.586Z,101745.84
2023-10-08T20:15:32.654Z,101749.88
2023-10-08T20:18:00.196Z,101748.59
2023-10-08T20:20:30.888Z,101756.00
2023-10-08T20:22:57.738Z,101767.38
2023-10-08T20:25:34.838Z,101773.28
2023-10-08T20:28:01.733Z,101770.28
2023-10-08T20:30:29.037Z,101769.00
2023-10-08T20:33:00.694Z,101767.94
2023-10-08T20:35:29.968Z,101736.38
2023-10-08T20:37:57.789Z,101754.00
2023-10-08T20:40:26.602Z,101753.13
2023-10-08T20:42:56.796Z,101736.56
2023-10-08T20:45:28.167Z,101744.19
2023-10-08T20:47:57.576Z,101743.97
2023-10-08T20:50:31.946Z,101768.56
2023-10-08T20:53:02.694Z,101779.31
2023-10-08T20:55:34.775Z,101776.13
2023-10-08T20:58:02.794Z,101779.94
2023-10-08T21:00:36.028Z,101781.16
2023-10-08T21:03:07.401Z,101765.09
2023-10-08T21:05:38.936Z,101737.81
2023-10-08T21:08:06.661Z,101723.84
2023-10-08T21:10:56.660Z,101741.22
2023-10-08T21:13:25.646Z,101721.09
2023-10-08T21:15:53.157Z,101717.97
2023-10-08T21:18:20.932Z,101716.66
2023-10-08T21:20:49.966Z,101708.66
2023-10-08T21:23:17.056Z,101717.94
2023-10-08T21:25:46.296Z,101715.13
2023-10-08T21:28:16.621Z,101710.84
2023-10-08T21:30:44.529Z,101698.16
2023-10-08T21:33:11.578Z,101706.16
2023-10-08T21:35:42.576Z,101705.25
2023-10-08T21:38:11.301Z,101703.09
2023-10-08T21:40:39.219Z,101695.00
2023-10-08T21:43:06.054Z,101687.13
2023-10-08T21:45:33.300Z,101684.91
2023-10-08T21:48:01.674Z,101674.03
2023-10-08T21:50:37.009Z,101680.84
2023-10-08T21:53:05.088Z,101689.50
2023-10-08T21:55:32.130Z,101685.91
2023-10-08T21:57:59.543Z,101683.13
2023-10-08T22:00:27.130Z,101678.09
2023-10-08T22:02:59.682Z,101676.63
2023-10-08T22:05:35.150Z,101684.50
2023-10-08T22:08:07.912Z,101673.09
2023-10-08T22:10:36.412Z,101669.94
2023-10-08T22:13:09.874Z,101674.03
2023-10-08T22:15:49.073Z,101669.34
2023-10-08T22:18:28.660Z,101671.00
2023-10-08T22:20:56.564Z,101664.44
2023-10-08T22:23:26.801Z,101654.56
2023-10-08T22:25:56.199Z,101648.00
2023-10-08T22:28:25.214Z,101643.53
2023-10-08T22:30:55.938Z,101630.81
2023-10-08T22:33:41.192Z,101635.25
2023-10-08T22:36:31.540Z,101634.84
2023-10-08T22:38:58.916Z,101620.09
2023-10-08T22:41:44.936Z,101609.53
2023-10-08T22:44:14.719Z,101595.41
2023-10-08T22:46:43.581Z,101577.44
2023-10-08T22:49:20.680Z,101568.41
2023-10-08T22:51:50.184Z,101570.91
2023-10-08T22:54:17.888Z,101568.41
2023-10-08T22:56:46.316Z,101566.03
2023-10-08T22:59:13.118Z,101558.25
2023-10-08T23:01:43.518Z,101554.00
2023-10-08T23:04:13.582Z,101565.66
2023-10-08T23:06:41.992Z,101547.88
2023-10-08T23:09:10.645Z,101535.41
2023-10-08T23:11:38.057Z,101528.66
2023-10-08T23:14:04.838Z,101547.72
2023-10-08T23:16:32.242Z,101534.22
2023-10-08T23:19:01.889Z,101539.91
2023-10-08T23:21:32.372Z,101556.34
2023-10-08T23:23:59.520Z,101563.16
2023-10-08T23:26:27.676Z,101568.63
2023-10-08T23:28:56.273Z,101558.47
2023-10-08T23:31:24.229Z,101568.16
2023-10-08T23:33:52.497Z,101555.91
2023-10-08T23:36:27.873Z,101577.06
2023-10-08T23:39:07.371Z,101579.13
2023-10-08T23:41:48.702Z,101575.16
2023-10-08T23:44:19.517Z,101593.69
2023-10-08T23:46:46.704Z,101601.47
2023-10-08T23:49:20.327Z,101587.28
2023-10-08T23:51:55.230Z,101584.75
2023-10-08T23:54:44.500Z,101584.97
2023-10-08T23:57:19.561Z,101589.34
2023-10-08T23:59:46.421Z,101574.50
